Time;durP1;ratioP1;P1;durP2;ratioP2;P2;SDS_P1;SDS_P2;PMS_P1;PMS_P2;Temp;Humidity;BMP_temperature;BMP_pressure;BME280_temperature;BME280_humidity;BME280_pressure;Samples;Min_cycle;Max_cycle;Signal;HPM_P1;HPM_P2
2023/08/06 00:00:18;;;;;;;6.93;5.45;;;19.30;99.90;;;;;;5064486;28;20041;-51
2023/08/06 00:02:43;;;;;;;8.07;6.10;;;19.20;99.90;;;;;;5064290;28;20029;-51
2023/08/06 00:05:09;;;;;;;7.03;6.18;;;19.30;99.90;;;;;;5069287;28;20029;-51
2023/08/06 00:07:35;;;;;;;6.97;5.35;;;19.30;99.90;;;;;;5044470;28;20126;-51
2023/08/06 00:10:01;;;;;;;8.05;5.68;;;19.30;99.90;;;;;;5058737;28;20025;-51
2023/08/06 00:12:26;;;;;;;5.80;5.20;;;19.20;99.90;;;;;;5068368;28;20063;-51
2023/08/06 00:14:53;;;;;;;8.52;5.45;;;19.20;99.90;;;;;;5068165;28;20029;-51
2023/08/06 00:17:19;;;;;;;7.60;6.70;;;19.10;99.90;;;;;;5066323;28;20025;-51
2023/08/06 00:19:45;;;;;;;6.72;4.85;;;19.20;99.90;;;;;;5068827;28;20403;-51
2023/08/06 00:22:10;;;;;;;6.82;5.35;;;19.20;99.90;;;;;;5043014;28;20094;-51
2023/08/06 00:24:36;;;;;;;7.07;5.18;;;19.30;99.90;;;;;;5059504;28;20025;-51
2023/08/06 00:27:02;;;;;;;6.57;5.40;;;19.30;99.90;;;;;;5065441;28;20623;-51
2023/08/06 00:29:28;;;;;;;7.72;5.47;;;19.30;99.90;;;;;;5056861;28;20566;-50
2023/08/06 00:31:54;;;;;;;5.80;5.20;;;19.30;99.90;;;;;;5065739;28;20029;-50
2023/08/06 00:34:20;;;;;;;6.13;5.13;;;19.30;99.90;;;;;;4998049;28;20083;-50
2023/08/06 00:36:45;;;;;;;6.45;5.35;;;19.40;99.90;;;;;;5063108;28;20036;-51
2023/08/06 00:39:11;;;;;;;5.68;4.90;;;19.50;99.90;;;;;;5061816;28;20025;-50
2023/08/06 00:41:37;;;;;;;5.82;5.15;;;19.50;99.90;;;;;;5062138;28;20029;-51
2023/08/06 00:44:03;;;;;;;5.43;4.93;;;19.60;99.90;;;;;;5058196;28;20449;-51
2023/08/06 00:46:31;;;;;;;7.45;5.40;;;19.60;99.90;;;;;;5063132;28;20037;-51
2023/08/06 00:48:57;;;;;;;5.72;5.13;;;19.40;99.90;;;;;;5059865;28;20035;-50
2023/08/06 00:51:24;;;;;;;6.25;5.20;;;19.40;99.90;;;;;;5064227;28;20029;-51
2023/08/06 00:53:49;;;;;;;7.13;6.05;;;19.50;99.90;;;;;;5058151;28;20025;-51
2023/08/06 00:56:16;;;;;;;7.55;6.07;;;19.80;99.90;;;;;;5055587;28;20079;-51
2023/08/06 00:58:42;;;;;;;8.82;7.00;;;19.90;99.90;;;;;;5065132;28;20039;-53
2023/08/06 01:01:07;;;;;;;9.93;6.90;;;20.10;99.90;;;;;;5063787;28;20108;-51
2023/08/06 01:03:33;;;;;;;11.25;7.93;;;20.10;99.90;;;;;;5067204;28;20439;-51
2023/08/06 01:06:00;;;;;;;10.55;8.30;;;20.20;99.90;;;;;;5066267;28;20071;-51
2023/08/06 01:08:56;;;;;;;10.35;7.93;;;20.30;99.90;;;;;;5061571;28;20021;-51
2023/08/06 01:11:53;;;;;;;11.57;9.38;;;20.30;99.90;;;;;;5022480;28;20053;-52
2023/08/06 01:14:30;;;;;;;10.55;8.60;;;20.40;99.90;;;;;;5058907;28;20086;-50
2023/08/06 01:16:58;;;;;;;9.75;8.75;;;20.50;99.90;;;;;;5061087;28;20032;-51
2023/08/06 01:19:24;;;;;;;8.88;7.80;;;20.60;99.90;;;;;;5040250;28;20033;-52
2023/08/06 01:21:49;;;;;;;9.98;8.88;;;20.60;99.90;;;;;;5060184;28;20037;-50
2023/08/06 01:24:15;;;;;;;9.50;8.50;;;20.30;99.90;;;;;;5059849;28;20539;-50
2023/08/06 01:27:25;;;;;;;11.45;9.73;;;20.10;99.90;;;;;;5059623;28;20052;-51
2023/08/06 01:30:13;;;;;;;15.00;9.85;;;19.80;99.90;;;;;;5050312;28;20037;-50
2023/08/06 01:32:44;;;;;;;10.98;9.02;;;19.80;99.90;;;;;;5062879;28;20052;-51
2023/08/06 01:35:13;;;;;;;11.13;10.02;;;19.80;99.90;;;;;;5058789;28;20031;-50
2023/08/06 01:37:40;;;;;;;17.42;10.15;;;19.70;99.90;;;;;;5039597;28;20128;-51
2023/08/06 01:40:11;;;;;;;13.43;10.65;;;20.00;99.90;;;;;;5033628;28;20083;-51
2023/08/06 01:42:37;;;;;;;12.55;11.13;;;20.00;99.90;;;;;;5043338;28;20047;-51
2023/08/06 01:45:04;;;;;;;12.18;10.95;;;20.10;99.90;;;;;;5059286;28;20029;-50
2023/08/06 01:47:29;;;;;;;11.30;10.25;;;20.20;99.90;;;;;;5045675;28;20041;-50
2023/08/06 01:49:55;;;;;;;10.93;9.50;;;20.40;99.90;;;;;;5063602;28;20025;-51
2023/08/06 01:52:21;;;;;;;11.05;9.95;;;20.40;99.90;;;;;;5058658;28;20544;-51
2023/08/06 01:54:47;;;;;;;10.00;8.98;;;20.30;99.90;;;;;;5064815;28;20100;-51
2023/08/06 01:57:12;;;;;;;10.70;9.65;;;20.30;99.90;;;;;;5056698;28;20036;-50
2023/08/06 01:59:38;;;;;;;12.50;10.48;;;20.10;99.90;;;;;;5064007;28;20464;-51
2023/08/06 02:02:04;;;;;;;12.07;10.88;;;19.90;99.90;;;;;;5062284;28;20379;-50
2023/08/06 02:04:30;;;;;;;11.55;10.35;;;19.90;99.90;;;;;;4997799;28;20024;-52
2023/08/06 02:06:56;;;;;;;14.57;12.02;;;19.70;99.90;;;;;;5062417;28;20029;-50
2023/08/06 02:09:21;;;;;;;13.88;10.93;;;19.80;99.90;;;;;;5063171;28;20028;-51
2023/08/06 02:11:47;;;;;;;13.75;12.07;;;19.80;99.90;;;;;;5063778;28;20053;-52
2023/08/06 02:14:13;;;;;;;12.90;11.35;;;19.80;99.90;;;;;;5062413;28;20043;-51
2023/08/06 02:16:38;;;;;;;11.90;10.70;;;20.10;99.90;;;;;;5061047;28;20072;-51
2023/08/06 02:19:04;;;;;;;12.52;11.23;;;20.20;99.90;;;;;;5065019;28;20036;-52
2023/08/06 02:21:30;;;;;;;15.15;11.43;;;20.40;99.90;;;;;;5062875;28;20074;-51
2023/08/06 02:23:56;;;;;;;11.88;10.30;;;20.50;99.90;;;;;;5067433;28;20020;-51
2023/08/06 02:26:21;;;;;;;12.27;11.00;;;20.60;99.90;;;;;;5048325;28;20032;-50
2023/08/06 02:28:47;;;;;;;12.50;9.93;;;20.70;99.90;;;;;;5045087;28;20025;-50
2023/08/06 02:31:13;;;;;;;12.60;11.30;;;20.80;99.90;;;;;;5063071;28;20032;-50
2023/08/06 02:33:38;;;;;;;11.65;10.55;;;20.70;99.90;;;;;;5067638;28;20056;-51
2023/08/06 02:36:04;;;;;;;11.25;10.15;;;20.70;99.90;;;;;;5071580;28;20039;-50
2023/08/06 02:38:33;;;;;;;12.23;10.48;;;20.60;99.90;;;;;;5066718;28;20480;-50
2023/08/06 02:41:03;;;;;;;12.18;10.00;;;20.60;99.90;;;;;;5067555;28;20068;-50
2023/08/06 02:43:29;;;;;;;11.88;10.77;;;20.60;99.90;;;;;;5061452;28;20032;-50
2023/08/06 02:46:00;;;;;;;15.07;11.90;;;20.60;99.90;;;;;;5011030;28;20036;-51
2023/08/06 02:48:26;;;;;;;13.18;10.55;;;20.50;99.90;;;;;;5068761;28;20107;-51
2023/08/06 02:50:51;;;;;;;11.35;10.35;;;20.60;99.90;;;;;;5048987;28;20123;-51
2023/08/06 02:53:17;;;;;;;11.45;10.25;;;20.70;99.90;;;;;;5060385;28;20071;-51
2023/08/06 02:55:50;;;;;;;12.48;11.23;;;20.40;99.90;;;;;;5064322;28;20028;-51
2023/08/06 02:58:16;;;;;;;12.07;10.75;;;20.60;99.90;;;;;;5065514;28;20056;-51
2023/08/06 03:00:45;;;;;;;14.88;11.20;;;20.60;99.90;;;;;;5056395;28;20519;-51
2023/08/06 03:03:11;;;;;;;14.75;10.60;;;20.60;99.90;;;;;;5069506;28;20830;-52
2023/08/06 03:05:37;;;;;;;14.90;13.10;;;20.70;99.90;;;;;;5065272;28;20033;-51
2023/08/06 03:08:03;;;;;;;12.55;11.27;;;20.80;99.90;;;;;;5057623;28;20056;-50
2023/08/06 03:10:28;;;;;;;13.20;11.18;;;20.80;99.90;;;;;;5017078;28;20377;-50
2023/08/06 03:12:54;;;;;;;14.45;11.82;;;21.00;99.90;;;;;;5069134;28;20047;-53
2023/08/06 03:15:20;;;;;;;13.13;11.70;;;20.90;99.90;;;;;;5062118;28;20040;-52
2023/08/06 03:17:46;;;;;;;12.93;11.20;;;21.00;99.90;;;;;;5064822;28;20036;-52
2023/08/06 03:20:11;;;;;;;12.63;11.32;;;21.00;99.90;;;;;;5073463;28;20384;-51
2023/08/06 03:22:37;;;;;;;17.17;12.63;;;21.20;99.90;;;;;;5066455;28;20037;-51
2023/08/06 03:25:03;;;;;;;13.68;12.25;;;21.20;99.90;;;;;;5061054;28;20036;-52
2023/08/06 03:27:29;;;;;;;15.98;12.25;;;21.60;99.90;;;;;;5047365;28;20036;-51
2023/08/06 03:29:55;;;;;;;16.38;12.90;;;;;;;;;;5066957;28;20097;-51
2023/08/06 03:32:21;;;;;;;14.20;12.80;;;21.30;99.90;;;;;;5065721;28;20040;-52
2023/08/06 03:34:47;;;;;;;16.80;14.32;;;21.40;99.90;;;;;;5064203;28;20053;-52
2023/08/06 03:37:12;;;;;;;16.67;14.90;;;21.30;99.90;;;;;;5064717;28;20032;-51
2023/08/06 03:39:38;;;;;;;16.23;14.55;;;21.30;99.90;;;;;;5016256;28;20041;-51
2023/08/06 03:42:04;;;;;;;18.25;15.30;;;21.30;99.90;;;;;;5075139;28;20047;-52
2023/08/06 03:44:30;;;;;;;18.70;16.63;;;21.30;99.90;;;;;;5043153;28;20037;-52
2023/08/06 03:46:56;;;;;;;18.73;16.75;;;21.30;99.90;;;;;;5062772;28;20188;-52
2023/08/06 03:49:22;;;;;;;21.33;18.52;;;21.20;99.90;;;;;;5066949;28;20112;-50
2023/08/06 03:51:47;;;;;;;20.90;17.67;;;21.20;99.90;;;;;;5068350;28;20071;-52
2023/08/06 03:54:13;;;;;;;22.38;18.08;;;21.10;99.90;;;;;;5063006;28;20108;-50
2023/08/06 03:56:39;;;;;;;19.67;17.75;;;21.10;99.90;;;;;;5057917;28;20035;-51
2023/08/06 03:59:04;;;;;;;18.02;16.23;;;21.00;99.90;;;;;;5068047;28;20479;-51
2023/08/06 04:01:30;;;;;;;21.85;16.65;;;20.90;99.90;;;;;;5064087;28;20127;-52
2023/08/06 04:03:56;;;;;;;21.13;16.17;;;20.90;99.90;;;;;;5065982;28;20063;-52
2023/08/06 04:06:22;;;;;;;18.63;16.60;;;21.00;99.90;;;;;;5064405;28;20123;-51
2023/08/06 04:08:47;;;;;;;19.45;17.48;;;20.90;99.90;;;;;;5066018;28;20036;-52
2023/08/06 04:11:13;;;;;;;19.23;17.00;;;20.90;99.90;;;;;;5065107;28;20174;-52
2023/08/06 04:13:42;;;;;;;19.75;17.65;;;20.80;99.90;;;;;;5061260;28;20044;-51
2023/08/06 04:16:08;;;;;;;20.45;18.25;;;20.90;99.90;;;;;;5070880;28;20028;-51
2023/08/06 04:18:34;;;;;;;20.80;16.27;;;20.90;99.90;;;;;;5065108;28;20037;-51
2023/08/06 04:21:01;;;;;;;14.93;12.85;;;20.90;99.90;;;;;;5065820;28;20036;-52
2023/08/06 04:23:27;;;;;;;17.23;15.57;;;20.90;99.90;;;;;;5055374;28;20037;-52
2023/08/06 04:25:55;;;;;;;14.02;12.25;;;21.00;99.90;;;;;;5066065;28;20036;-52
2023/08/06 04:28:21;;;;;;;12.48;11.27;;;20.80;99.90;;;;;;5063113;28;20033;-50
2023/08/06 04:30:47;;;;;;;11.48;9.60;;;20.70;99.90;;;;;;5064368;28;20036;-51
2023/08/06 04:33:13;;;;;;;10.32;9.30;;;20.70;99.90;;;;;;5057578;28;20395;-52
2023/08/06 04:35:38;;;;;;;10.32;8.63;;;20.70;99.90;;;;;;5062546;28;20062;-53
2023/08/06 04:38:04;;;;;;;8.43;7.63;;;20.70;99.90;;;;;;5065514;28;20402;-51
2023/08/06 04:40:32;;;;;;;10.52;8.35;;;20.70;99.90;;;;;;5058905;28;20094;-51
2023/08/06 04:42:58;;;;;;;8.35;7.20;;;20.70;99.90;;;;;;5063329;28;20045;-52
2023/08/06 04:45:24;;;;;;;7.70;6.22;;;20.70;99.90;;;;;;5067867;28;20434;-51
2023/08/06 04:47:50;;;;;;;8.20;6.78;;;20.70;99.90;;;;;;5061227;28;20041;-52
2023/08/06 04:50:15;;;;;;;8.95;7.03;;;20.70;99.90;;;;;;5060444;28;20040;-51
2023/08/06 04:52:41;;;;;;;9.38;6.40;;;20.80;99.90;;;;;;5060040;28;20539;-50
2023/08/06 04:55:07;;;;;;;7.10;5.88;;;20.70;99.90;;;;;;5037927;28;20045;-51
2023/08/06 04:57:33;;;;;;;6.72;4.93;;;20.70;99.90;;;;;;5063112;28;20047;-52
2023/08/06 04:59:58;;;;;;;9.57;5.97;;;20.70;99.90;;;;;;5061920;28;20029;-50
2023/08/06 05:02:24;;;;;;;6.45;5.10;;;20.80;99.90;;;;;;5058264;28;20025;-50
2023/08/06 05:04:50;;;;;;;7.80;5.38;;;20.90;99.90;;;;;;5055691;28;20120;-51
2023/08/06 05:07:16;;;;;;;4.90;4.43;;;20.80;99.90;;;;;;5058489;28;20032;-50
2023/08/06 05:09:41;;;;;;;5.88;4.45;;;20.90;99.90;;;;;;5064321;28;20123;-51
2023/08/06 05:12:07;;;;;;;5.22;4.03;;;20.90;99.90;;;;;;5056228;28;20048;-52
2023/08/06 05:14:33;;;;;;;4.15;3.45;;;20.90;99.90;;;;;;5045771;28;20432;-51
2023/08/06 05:16:59;;;;;;;3.78;3.20;;;20.90;99.90;;;;;;5064437;28;20032;-51
2023/08/06 05:19:24;;;;;;;3.30;2.92;;;21.20;99.90;;;;;;5062419;28;20392;-51
2023/08/06 05:21:50;;;;;;;3.72;3.25;;;21.20;99.90;;;;;;5059643;28;20025;-51
2023/08/06 05:24:16;;;;;;;5.38;3.00;;;21.30;99.90;;;;;;5056806;28;20031;-52
2023/08/06 05:26:42;;;;;;;3.13;2.55;;;21.20;99.90;;;;;;5064093;28;20033;-52
2023/08/06 05:29:08;;;;;;;2.70;2.47;;;21.10;99.90;;;;;;5057030;28;20047;-52
2023/08/06 05:31:33;;;;;;;4.72;2.75;;;21.10;99.90;;;;;;5061446;28;20387;-51
2023/08/06 05:33:59;;;;;;;4.07;2.88;;;21.20;99.90;;;;;;5060599;28;20048;-51
2023/08/06 05:36:25;;;;;;;2.72;2.53;;;;;;;;;;5062192;28;20021;-51
2023/08/06 05:38:51;;;;;;;6.45;2.88;;;;;;;;;;5061155;28;20389;-51
2023/08/06 05:41:17;;;;;;;4.05;2.72;;;21.60;99.90;;;;;;5056700;28;20534;-51
2023/08/06 05:43:42;;;;;;;4.90;2.90;;;21.50;99.90;;;;;;5065103;28;20020;-51
2023/08/06 05:46:08;;;;;;;5.70;3.15;;;21.50;99.90;;;;;;5047171;28;20082;-51
2023/08/06 05:48:34;;;;;;;3.40;2.80;;;21.50;99.90;;;;;;5062925;28;20150;-52
2023/08/06 05:51:00;;;;;;;6.32;2.70;;;21.40;99.90;;;;;;5065902;28;20025;-51
2023/08/06 05:53:25;;;;;;;4.05;3.00;;;21.50;99.90;;;;;;5067217;28;20039;-52
2023/08/06 05:55:51;;;;;;;4.05;2.50;;;21.60;99.90;;;;;;5058072;28;20145;-51
2023/08/06 05:58:17;;;;;;;7.53;2.70;;;21.70;99.90;;;;;;5064350;28;20032;-51
2023/08/06 06:00:43;;;;;;;3.13;2.78;;;21.70;99.90;;;;;;5055809;28;20048;-52
2023/08/06 06:03:09;;;;;;;1.70;1.40;;;21.70;99.90;;;;;;5060590;28;20023;-51
2023/08/06 06:05:37;;;;;;;4.18;2.45;;;21.60;99.90;;;;;;5066803;28;20035;-52
2023/08/06 06:08:03;;;;;;;3.80;2.28;;;21.60;99.90;;;;;;5046868;28;20037;-51
2023/08/06 06:10:28;;;;;;;2.85;2.10;;;21.70;99.90;;;;;;5045314;28;20025;-51
2023/08/06 06:12:54;;;;;;;3.00;2.05;;;21.70;99.90;;;;;;5063652;28;20053;-51
2023/08/06 06:15:20;;;;;;;3.45;2.05;;;21.70;99.90;;;;;;5064268;28;20032;-51
2023/08/06 06:17:45;;;;;;;6.97;1.90;;;21.80;99.90;;;;;;5052638;28;20045;-51
2023/08/06 06:20:12;;;;;;;2.97;1.95;;;;;;;;;;5061140;28;20100;-51
2023/08/06 06:22:37;;;;;;;2.05;1.77;;;21.80;99.90;;;;;;5061183;28;20055;-52
2023/08/06 06:25:03;;;;;;;4.63;1.80;;;21.90;99.90;;;;;;5065391;28;20024;-51
2023/08/06 06:27:29;;;;;;;2.40;1.50;;;21.90;99.90;;;;;;5009200;28;20071;-51
2023/08/06 06:29:55;;;;;;;1.75;1.65;;;21.90;99.90;;;;;;5063772;28;20056;-52
2023/08/06 06:32:21;;;;;;;3.60;1.25;;;21.90;99.90;;;;;;5063179;28;20108;-51
2023/08/06 06:34:47;;;;;;;2.85;1.50;;;21.80;99.90;;;;;;5061647;28;20076;-50
2023/08/06 06:37:13;;;;;;;3.22;1.20;;;21.70;99.90;;;;;;5059039;28;20090;-50
2023/08/06 06:39:39;;;;;;;1.48;1.20;;;21.70;99.90;;;;;;5062100;28;20040;-51
2023/08/06 06:42:05;;;;;;;2.38;1.38;;;;;;;;;;5062081;28;20031;-51
2023/08/06 06:44:31;;;;;;;3.47;1.40;;;;;;;;;;5058117;28;20033;-51
2023/08/06 06:46:57;;;;;;;1.23;1.13;;;22.10;99.90;;;;;;5062056;28;20033;-51
2023/08/06 06:49:22;;;;;;;1.02;1.00;;;22.00;99.90;;;;;;5066086;28;20380;-51
2023/08/06 06:51:48;;;;;;;1.17;0.90;;;22.00;99.90;;;;;;5078297;28;20027;-51
2023/08/06 06:54:14;;;;;;;1.98;1.10;;;;;;;;;;5063507;28;20032;-51
2023/08/06 06:56:40;;;;;;;5.40;1.23;;;22.30;99.90;;;;;;5058269;28;20056;-51
2023/08/06 06:59:05;;;;;;;1.30;1.10;;;22.30;99.90;;;;;;5064678;28;20060;-51
2023/08/06 07:01:31;;;;;;;4.50;1.48;;;22.40;99.90;;;;;;5064675;28;20044;-54
2023/08/06 07:03:57;;;;;;;1.95;1.50;;;22.40;99.90;;;;;;5060768;28;20060;-52
2023/08/06 07:06:23;;;;;;;0.98;0.98;;;22.20;99.90;;;;;;5055930;28;20029;-53
2023/08/06 07:08:48;;;;;;;1.40;1.20;;;22.40;99.90;;;;;;5066620;28;20043;-52
2023/08/06 07:11:14;;;;;;;1.25;1.00;;;22.40;99.90;;;;;;5066673;28;20025;-52
2023/08/06 07:13:40;;;;;;;3.53;1.30;;;22.40;99.90;;;;;;5060743;28;20049;-51
2023/08/06 07:16:06;;;;;;;1.02;0.93;;;22.20;99.90;;;;;;5063786;28;20078;-53
2023/08/06 07:18:31;;;;;;;1.05;0.90;;;22.30;99.90;;;;;;5066880;28;20037;-54
2023/08/06 07:20:57;;;;;;;2.95;1.15;;;22.10;99.90;;;;;;5033566;28;20063;-53
2023/08/06 07:23:24;;;;;;;1.33;1.20;;;22.20;99.90;;;;;;5063678;28;20438;-50
2023/08/06 07:25:51;;;;;;;1.67;1.10;;;22.20;99.90;;;;;;5063740;28;20138;-51
2023/08/06 07:28:17;;;;;;;1.58;1.00;;;22.30;99.90;;;;;;5064467;28;20068;-54
2023/08/06 07:30:44;;;;;;;3.03;1.00;;;22.50;99.90;;;;;;5056933;28;20028;-53
2023/08/06 07:33:10;;;;;;;3.33;1.40;;;;;;;;;;5065986;28;20036;-51
2023/08/06 07:35:36;;;;;;;0.80;0.70;;;;;;;;;;5059255;28;20064;-50
2023/08/06 07:38:02;;;;;;;1.27;1.02;;;23.30;99.90;;;;;;5069524;28;20700;-54
2023/08/06 07:40:28;;;;;;;1.40;1.20;;;23.40;99.90;;;;;;5062308;28;20115;-52
2023/08/06 07:42:54;;;;;;;1.45;0.90;;;;;;;;;;5065841;28;20240;-52
2023/08/06 07:45:20;;;;;;;2.53;1.10;;;23.50;99.90;;;;;;5059855;28;20060;-54
2023/08/06 07:47:46;;;;;;;1.13;1.00;;;23.50;99.90;;;;;;5056432;28;20127;-51
2023/08/06 07:50:13;;;;;;;1.63;1.20;;;23.30;99.90;;;;;;5063394;28;20043;-55
2023/08/06 07:52:39;;;;;;;2.08;0.98;;;23.50;99.90;;;;;;5061306;28;20059;-54
2023/08/06 07:55:06;;;;;;;1.65;1.00;;;23.60;99.90;;;;;;5053803;28;20028;-51
2023/08/06 07:57:33;;;;;;;1.65;1.10;;;23.70;99.90;;;;;;5055156;28;20040;-50
2023/08/06 07:59:59;;;;;;;3.30;1.00;;;23.50;99.90;;;;;;5060273;28;20029;-50
2023/08/06 08:02:25;;;;;;;1.30;1.00;;;23.40;99.90;;;;;;5059251;28;20025;-53
2023/08/06 08:04:51;;;;;;;1.50;0.95;;;23.40;99.90;;;;;;5055554;28;20551;-51
2023/08/06 08:07:16;;;;;;;2.50;1.02;;;23.40;99.90;;;;;;5054846;28;20025;-52
2023/08/06 08:09:42;;;;;;;2.75;1.00;;;23.40;99.90;;;;;;5066289;28;20076;-51
2023/08/06 08:12:08;;;;;;;1.02;0.93;;;;;;;;;;5066800;28;20082;-51
2023/08/06 08:14:36;;;;;;;1.45;0.80;;;;;;;;;;5062784;28;20680;-51
2023/08/06 08:17:08;;;;;;;2.95;1.00;;;;;;;;;;5058119;28;20047;-50
2023/08/06 08:19:34;;;;;;;1.00;0.80;;;24.70;99.90;;;;;;5040976;28;20132;-50
2023/08/06 08:22:00;;;;;;;1.10;1.00;;;;;;;;;;5062688;28;20099;-54
2023/08/06 08:24:26;;;;;;;1.30;0.90;;;;;;;;;;5067970;28;20082;-52
2023/08/06 08:26:52;;;;;;;1.75;1.23;;;25.20;99.90;;;;;;5064257;28;20041;-52
2023/08/06 08:29:19;;;;;;;0.70;0.70;;;25.00;99.90;;;;;;5062093;28;20040;-52
2023/08/06 08:31:48;;;;;;;1.10;0.73;;;;;;;;;;5058569;28;20028;-51
2023/08/06 08:34:14;;;;;;;0.70;0.70;;;;;;;;;;5054889;28;20538;-49
2023/08/06 08:36:40;;;;;;;0.88;0.70;;;;;;;;;;5066918;28;20025;-50
2023/08/06 08:39:06;;;;;;;0.60;0.60;;;;;;;;;;5014976;28;20084;-49
2023/08/06 08:41:33;;;;;;;3.60;0.90;;;;;;;;;;5029317;28;20036;-48
2023/08/06 08:44:03;;;;;;;1.58;0.98;;;;;;;;;;5063171;28;20375;-50
2023/08/06 08:46:33;;;;;;;1.50;0.90;;;;;;;;;;5059097;28;20120;-51
2023/08/06 08:49:00;;;;;;;1.17;0.70;;;;;;;;;;5061590;28;20032;-53
2023/08/06 08:51:28;;;;;;;1.25;0.70;;;;;;;;;;5061731;28;20040;-55
2023/08/06 08:53:57;;;;;;;1.02;0.77;;;;;;;;;;5062129;28;20036;-56
2023/08/06 08:56:23;;;;;;;0.70;0.70;;;;;;;;;;5062238;28;20054;-52
2023/08/06 08:58:50;;;;;;;4.72;0.90;;;;;;;;;;5061175;28;20104;-50
2023/08/06 09:01:16;;;;;;;1.85;0.80;;;;;;;;;;5063403;28;20017;-52
2023/08/06 09:03:44;;;;;;;2.05;0.73;;;;;;;;;;5064352;28;20384;-50
2023/08/06 09:06:11;;;;;;;1.08;0.93;;;;;;;;;;5063325;28;20047;-50
2023/08/06 09:08:39;;;;;;;1.45;0.80;;;;;;;;;;5062880;28;20513;-50
2023/08/06 09:11:09;;;;;;;2.28;0.82;;;;;;;;;;5059399;28;20032;-50
2023/08/06 09:13:37;;;;;;;1.58;0.90;;;27.20;99.90;;;;;;5062228;28;20033;-51
2023/08/06 09:16:03;;;;;;;2.05;0.90;;;27.20;99.90;;;;;;5066049;28;20021;-51
2023/08/06 09:18:30;;;;;;;1.45;0.70;;;;;;;;;;5064977;28;20033;-50
2023/08/06 09:20:57;;;;;;;1.55;0.90;;;;;;;;;;5057173;28;20522;-51
2023/08/06 09:23:30;;;;;;;0.85;0.70;;;;;;;;;;5042422;28;20478;-50
2023/08/06 09:25:56;;;;;;;1.65;0.80;;;;;;;;;;5062046;28;20033;-51
2023/08/06 09:28:24;;;;;;;1.67;0.70;;;;;;;;;;5062329;28;20031;-50
2023/08/06 09:30:51;;;;;;;2.50;0.60;;;;;;;;;;5065102;28;20036;-50
2023/08/06 09:33:19;;;;;;;0.63;0.55;;;;;;;;;;5055922;28;20143;-50
2023/08/06 09:35:47;;;;;;;1.55;0.70;;;;;;;;;;5052542;28;20067;-51
2023/08/06 09:38:13;;;;;;;0.75;0.43;;;;;;;;;;5064967;28;20431;-51
2023/08/06 09:40:40;;;;;;;1.13;0.65;;;;;;;;;;5062550;28;20035;-50
2023/08/06 09:43:06;;;;;;;1.75;0.90;;;;;;;;;;5058311;28;20040;-50
2023/08/06 09:45:37;;;;;;;0.65;0.65;;;;;;;;;;5040812;28;20061;-50
2023/08/06 09:48:04;;;;;;;2.08;0.70;;;;;;;;;;5056719;28;20032;-58
2023/08/06 09:50:32;;;;;;;0.65;0.50;;;;;;;;;;5069581;28;20035;-53
2023/08/06 09:52:58;;;;;;;1.67;0.55;;;;;;;;;;5059359;28;20062;-52
2023/08/06 09:55:26;;;;;;;1.63;0.73;;;;;;;;;;5061354;28;20036;-52
2023/08/06 09:57:53;;;;;;;1.60;0.60;;;;;;;;;;5060837;28;20033;-53
2023/08/06 10:00:19;;;;;;;0.52;0.40;;;;;;;;;;5059317;28;20160;-50
2023/08/06 10:02:46;;;;;;;45.78;41.42;;;;;;;;;;5035506;28;20037;-49
2023/08/06 10:05:12;;;;;;;0.50;0.50;;;;;;;;;;5038591;28;20158;-49
2023/08/06 10:07:41;;;;;;;4.20;2.25;;;;;;;;;;5017573;28;20038;-48
2023/08/06 10:10:07;;;;;;;0.50;0.50;;;;;;;;;;5032632;28;20049;-48
2023/08/06 10:12:35;;;;;;;1.65;0.50;;;;;;;;;;5046222;28;20084;-51
2023/08/06 10:15:02;;;;;;;1.63;0.60;;;;;;;;;;5038511;28;20057;-49
2023/08/06 10:17:28;;;;;;;0.40;0.40;;;;;;;;;;5025291;28;20123;-49
2023/08/06 10:19:56;;;;;;;2.13;0.75;;;26.90;99.90;;;;;;5041344;28;20036;-49
2023/08/06 10:22:23;;;;;;;1.40;0.50;;;;;;;;;;5019225;28;20599;-49
2023/08/06 10:24:49;;;;;;;0.40;0.40;;;;;;;;;;5034167;28;20549;-48
2023/08/06 10:27:21;;;;;;;0.50;0.50;;;26.50;99.90;;;;;;5041832;28;20119;-49
2023/08/06 10:29:48;;;;;;;2.70;0.47;;;26.80;99.90;;;;;;5043494;28;20025;-49
2023/08/06 10:32:14;;;;;;;1.00;0.63;;;27.00;99.90;;;;;;5043136;28;20428;-50
2023/08/06 10:34:57;;;;;;;0.85;0.50;;;27.40;99.90;;;;;;5059720;28;20049;-50
2023/08/06 10:37:23;;;;;;;0.60;0.60;;;;;;;;;;5049881;28;20132;-50
2023/08/06 10:39:52;;;;;;;1.17;0.50;;;;;;;;;;5063206;28;20040;-51
2023/08/06 10:42:36;;;;;;;1.13;0.50;;;;;;;;;;5063319;28;20040;-50
2023/08/06 10:45:16;;;;;;;0.93;0.65;;;;;;;;;;5066136;28;20051;-51
2023/08/06 10:47:42;;;;;;;0.50;0.50;;;;;;;;;;5064685;28;20064;-50
2023/08/06 10:50:12;;;;;;;0.40;0.40;;;28.50;99.90;;;;;;5064601;28;20048;-51
2023/08/06 10:52:38;;;;;;;0.60;0.40;;;;;;;;;;5067815;28;20036;-51
2023/08/06 10:55:05;;;;;;;1.02;0.47;;;;;;;;;;5062211;28;20020;-52
2023/08/06 10:57:30;;;;;;;2.15;0.35;;;28.50;99.90;;;;;;5068540;28;20034;-54
2023/08/06 10:59:56;;;;;;;2.20;0.30;;;28.40;99.90;;;;;;5069641;28;20123;-52
2023/08/06 11:02:22;;;;;;;0.80;0.57;;;28.50;99.90;;;;;;5063811;28;20063;-51
2023/08/06 11:04:48;;;;;;;2.17;0.45;;;28.60;99.90;;;;;;5064675;28;20115;-52
2023/08/06 11:07:34;;;;;;;1.48;0.55;;;;;;;;;;5067671;28;20028;-53
2023/08/06 11:10:10;;;;;;;0.68;0.68;;;;;;;;;;5067839;28;20047;-52
2023/08/06 11:12:37;;;;;;;1.65;0.98;;;;;;;;;;5066095;28;20066;-52
2023/08/06 11:15:03;;;;;;;1.00;0.60;;;;;;;;;;5067039;28;20074;-52
2023/08/06 11:17:31;;;;;;;0.95;0.50;;;29.80;99.90;;;;;;5056520;28;20086;-52
2023/08/06 11:20:00;;;;;;;0.88;0.40;;;29.80;99.90;;;;;;5017645;28;20040;-52
2023/08/06 11:22:26;;;;;;;0.70;0.47;;;29.70;99.90;;;;;;5060727;28;20028;-52
2023/08/06 11:24:54;;;;;;;0.98;0.57;;;28.70;99.90;;;;;;5060490;28;20052;-53
2023/08/06 11:27:19;;;;;;;1.58;0.93;;;28.70;99.90;;;;;;5063545;28;20040;-53
2023/08/06 11:29:45;;;;;;;1.15;0.70;;;29.10;99.90;;;;;;5059449;28;20571;-52
2023/08/06 11:32:12;;;;;;;0.70;0.57;;;28.80;99.90;;;;;;5059303;28;20499;-52
2023/08/06 11:34:38;;;;;;;0.93;0.60;;;;;;;;;;5063262;28;20053;-51
2023/08/06 11:37:05;;;;;;;0.75;0.50;;;28.10;99.90;;;;;;5056860;28;20147;-51
2023/08/06 11:39:35;;;;;;;0.60;0.57;;;28.20;99.90;;;;;;5058192;28;20029;-53
2023/08/06 11:42:03;;;;;;;1.08;0.77;;;28.20;99.90;;;;;;5059579;28;20047;-52
2023/08/06 11:44:35;;;;;;;0.93;0.50;;;28.20;99.90;;;;;;5058271;28;20029;-53
2023/08/06 11:47:04;;;;;;;1.75;0.63;;;28.10;99.90;;;;;;5061128;28;20385;-51
2023/08/06 11:49:49;;;;;;;1.35;0.73;;;28.00;99.90;;;;;;5043258;28;20048;-52
2023/08/06 11:52:35;;;;;;;1.65;0.50;;;;;;;;;;5022171;28;20436;-54
2023/08/06 11:55:12;;;;;;;5.18;2.53;;;27.80;99.90;;;;;;5018502;28;20042;-55
2023/08/06 11:57:39;;;;;;;1.98;0.90;;;27.70;99.90;;;;;;4971422;28;20045;-55
2023/08/06 12:00:12;;;;;;;0.95;0.60;;;;;;;;;;5020427;28;20033;-51
2023/08/06 12:02:42;;;;;;;1.55;0.73;;;;;;;;;;5003330;28;20402;-52
2023/08/06 12:05:18;;;;;;;1.83;0.88;;;;;;;;;;5015888;28;20022;-54
2023/08/06 12:07:45;;;;;;;2.22;0.73;;;26.60;99.90;;;;;;5023283;28;20036;-51
2023/08/06 12:10:12;;;;;;;3.03;1.00;;;26.40;99.90;;;;;;5024742;28;20026;-52
2023/08/06 12:12:39;;;;;;;1.27;0.98;;;26.30;99.90;;;;;;5021506;28;20127;-52
2023/08/06 12:15:09;;;;;;;1.33;0.57;;;26.20;99.90;;;;;;5020270;28;20026;-51
2023/08/06 12:17:35;;;;;;;4.13;1.05;;;26.20;99.90;;;;;;4989376;28;20033;-52
2023/08/06 12:20:04;;;;;;;2.33;0.93;;;26.30;99.90;;;;;;5025942;28;20489;-51
2023/08/06 12:22:34;;;;;;;1.90;0.95;;;26.40;99.90;;;;;;5020709;28;20038;-52
2023/08/06 12:25:07;;;;;;;2.80;0.82;;;26.50;99.90;;;;;;5058783;28;20477;-52
2023/08/06 12:27:34;;;;;;;2.97;1.00;;;26.70;99.90;;;;;;5068173;28;20477;-52
2023/08/06 12:29:59;;;;;;;1.33;0.80;;;26.80;99.90;;;;;;5064327;28;20120;-52
2023/08/06 12:32:26;;;;;;;1.20;0.85;;;;;;;;;;5063825;28;20513;-52
2023/08/06 12:34:53;;;;;;;1.45;1.10;;;;;;;;;;5063596;28;20127;-52
2023/08/06 12:37:18;;;;;;;1.42;1.20;;;24.70;99.90;;;;;;5063371;28;20046;-52
2023/08/06 12:39:44;;;;;;;2.53;1.48;;;24.90;99.90;;;;;;5062693;28;20024;-52
2023/08/06 12:42:10;;;;;;;3.22;1.35;;;24.80;99.90;;;;;;5064843;28;20036;-52
2023/08/06 12:44:36;;;;;;;2.67;1.40;;;25.30;99.90;;;;;;5058943;28;20040;-51
2023/08/06 12:47:02;;;;;;;1.90;1.15;;;25.10;99.90;;;;;;5065531;28;20024;-52
2023/08/06 12:49:28;;;;;;;2.15;1.00;;;25.30;99.90;;;;;;5060907;28;20025;-51
2023/08/06 12:51:56;;;;;;;1.30;1.20;;;25.20;99.90;;;;;;5064570;28;20511;-51
2023/08/06 12:54:22;;;;;;;4.38;1.40;;;;;;;;;;5061976;28;20136;-51
2023/08/06 12:56:50;;;;;;;3.70;0.98;;;;;;;;;;5060818;28;20032;-51
2023/08/06 12:59:17;;;;;;;16.35;2.25;;;;;;;;;;5067854;28;20035;-50
2023/08/06 13:01:43;;;;;;;4.35;2.40;;;20.00;99.90;;;;;;5069348;28;20032;-50
2023/08/06 13:04:09;;;;;;;1.15;0.98;;;18.60;99.90;;;;;;5063287;28;20038;-50
2023/08/06 13:28:52;;;;;;;5.55;2.28;;;19.90;99.90;;;;;;5096658;27;20406;-53